Time;durP1;ratioP1;P1;durP2;ratioP2;P2;SDS_P1;SDS_P2;PMS_P1;PMS_P2;Temp;Humidity;BMP_temperature;BMP_pressure;BME280_temperature;BME280_humidity;BME280_pressure;Samples;Min_cycle;Max_cycle;Signal;HPM_P1;HPM_P2
2023/03/25 00:00:20;;;;;;;5.27;1.50;;;9.50;99.90;;;;;;5052882;28;20244;-38
2023/03/25 00:05:23;;;;;;;3.07;1.03;;;9.40;99.90;;;;;;5084222;28;20200;-32
2023/03/25 00:07:51;;;;;;;3.07;0.80;;;9.30;99.90;;;;;;5086097;28;20178;-33
2023/03/25 00:10:17;;;;;;;2.30;0.90;;;9.20;99.90;;;;;;5090520;28;20184;-33
2023/03/25 00:12:43;;;;;;;3.77;0.80;;;9.10;99.90;;;;;;5073415;28;20223;-34
2023/03/25 00:15:11;;;;;;;1.93;1.10;;;9.10;99.90;;;;;;5073429;28;20172;-33
2023/03/25 00:17:37;;;;;;;2.93;1.00;;;9.10;99.90;;;;;;5090205;28;20210;-33
2023/03/25 00:20:07;;;;;;;2.93;0.87;;;9.00;99.90;;;;;;5091338;28;20208;-44
2023/03/25 00:22:39;;;;;;;1.23;0.80;;;9.00;99.90;;;;;;5091160;28;20197;-44
2023/03/25 00:25:07;;;;;;;1.27;0.87;;;8.90;99.90;;;;;;5073274;28;20183;-43
2023/03/25 00:27:33;;;;;;;2.20;0.90;;;8.90;99.90;;;;;;5073437;28;20263;-43
2023/03/25 00:29:59;;;;;;;1.17;0.77;;;8.80;99.90;;;;;;5055958;28;20633;-43
2023/03/25 00:32:28;;;;;;;2.63;1.00;;;8.80;99.90;;;;;;5072957;28;20243;-44
2023/03/25 00:34:55;;;;;;;1.80;0.83;;;8.80;99.90;;;;;;5072802;28;20183;-42
2023/03/25 00:37:21;;;;;;;2.10;0.83;;;8.80;99.90;;;;;;5089925;28;20210;-43
2023/03/25 00:39:47;;;;;;;1.73;0.73;;;8.80;99.90;;;;;;5072914;28;20198;-43
2023/03/25 00:42:17;;;;;;;1.33;0.80;;;8.70;99.90;;;;;;5090201;28;20259;-44
2023/03/25 00:44:43;;;;;;;3.13;0.70;;;8.80;99.90;;;;;;5072800;28;20204;-42
2023/03/25 00:47:10;;;;;;;1.77;0.90;;;8.80;99.90;;;;;;5073100;28;20579;-43
2023/03/25 00:49:36;;;;;;;3.50;0.70;;;8.70;99.90;;;;;;5090937;28;20202;-42
2023/03/25 00:52:03;;;;;;;2.17;0.70;;;8.70;99.90;;;;;;5073020;28;20211;-43
2023/03/25 00:54:29;;;;;;;0.77;0.77;;;8.70;99.90;;;;;;5054956;28;20173;-43
2023/03/25 00:56:55;;;;;;;1.93;0.80;;;8.60;99.90;;;;;;5073029;28;20225;-43
2023/03/25 00:59:20;;;;;;;2.93;0.90;;;8.60;99.90;;;;;;5072194;28;20187;-43
2023/03/25 01:01:46;;;;;;;1.37;0.70;;;8.60;99.90;;;;;;5072402;28;20216;-43
2023/03/25 01:04:12;;;;;;;1.63;0.90;;;8.50;99.90;;;;;;5056018;28;20192;-42
2023/03/25 01:06:43;;;;;;;2.87;0.80;;;8.50;99.90;;;;;;5073099;28;20184;-42
2023/03/25 01:09:15;;;;;;;2.43;0.80;;;8.40;99.90;;;;;;5088320;28;20223;-42
2023/03/25 01:11:43;;;;;;;1.53;0.80;;;8.30;99.90;;;;;;5089336;28;20241;-43
2023/03/25 01:14:15;;;;;;;0.70;0.60;;;8.30;99.90;;;;;;5074175;28;20199;-43
2023/03/25 01:16:42;;;;;;;2.03;0.90;;;8.30;99.90;;;;;;5076841;28;20176;-42
2023/03/25 01:19:09;;;;;;;1.60;0.80;;;8.20;99.90;;;;;;5076672;28;20177;-43
2023/03/25 01:21:35;;;;;;;1.13;0.90;;;8.20;99.90;;;;;;5076611;28;20680;-41
2023/03/25 01:24:03;;;;;;;1.43;0.70;;;8.20;99.90;;;;;;5093116;28;20181;-42
2023/03/25 01:26:29;;;;;;;1.03;0.50;;;8.20;99.90;;;;;;5093337;28;20172;-42
2023/03/25 01:28:55;;;;;;;0.97;0.70;;;8.20;99.90;;;;;;5076444;28;20184;-43
2023/03/25 01:31:21;;;;;;;2.73;1.03;;;8.10;99.90;;;;;;5093358;28;20213;-42
2023/03/25 01:33:48;;;;;;;2.33;0.80;;;8.10;99.90;;;;;;5087868;28;20670;-41
2023/03/25 01:36:14;;;;;;;0.90;0.70;;;8.10;99.90;;;;;;5076492;28;20181;-43
2023/03/25 01:38:41;;;;;;;1.47;0.83;;;8.10;99.90;;;;;;5060781;28;20195;-43
2023/03/25 01:41:08;;;;;;;2.40;0.70;;;8.10;99.90;;;;;;5076074;28;20265;-43
2023/03/25 01:43:34;;;;;;;0.70;0.70;;;8.10;99.90;;;;;;5092867;28;20234;-43
2023/03/25 01:46:01;;;;;;;2.03;0.80;;;8.20;99.90;;;;;;5076414;28;20274;-43
2023/03/25 01:48:34;;;;;;;1.73;0.90;;;8.20;99.90;;;;;;5076039;28;20267;-42
2023/03/25 01:51:17;;;;;;;1.20;0.67;;;8.20;99.90;;;;;;5094485;28;20207;-41
2023/03/25 01:53:43;;;;;;;0.63;0.60;;;8.20;99.90;;;;;;5075895;28;20179;-41
2023/03/25 01:56:14;;;;;;;1.13;0.80;;;8.20;99.90;;;;;;5076092;28;20176;-43
2023/03/25 01:58:42;;;;;;;1.10;0.80;;;8.20;99.90;;;;;;5094452;28;20180;-44
2023/03/25 02:01:12;;;;;;;1.53;0.70;;;8.30;99.90;;;;;;5059222;28;20216;-43
2023/03/25 02:03:49;;;;;;;1.77;0.70;;;8.30;99.90;;;;;;5075630;28;20282;-43
2023/03/25 02:06:30;;;;;;;1.53;0.70;;;8.30;99.90;;;;;;5092432;28;20203;-42
2023/03/25 02:09:00;;;;;;;0.60;0.60;;;8.30;99.90;;;;;;5075984;28;20180;-43
2023/03/25 02:11:28;;;;;;;1.77;0.73;;;8.30;99.90;;;;;;5075180;28;20207;-42
2023/03/25 02:14:01;;;;;;;1.00;0.70;;;8.30;99.90;;;;;;5075568;28;20207;-40
2023/03/25 02:16:46;;;;;;;0.83;0.63;;;8.20;99.90;;;;;;5075616;28;20233;-43
2023/03/25 02:19:37;;;;;;;1.73;0.60;;;8.20;99.90;;;;;;5093879;28;20172;-42
2023/03/25 02:22:14;;;;;;;1.47;0.60;;;8.20;99.90;;;;;;5058566;28;20230;-42
2023/03/25 02:25:03;;;;;;;0.90;0.57;;;8.20;99.90;;;;;;5092805;28;20195;-43
2023/03/25 02:27:44;;;;;;;0.77;0.60;;;8.10;99.90;;;;;;5093111;28;20186;-42
2023/03/25 02:30:13;;;;;;;0.40;0.40;;;8.10;99.90;;;;;;5075339;28;20175;-43
2023/03/25 02:33:05;;;;;;;0.40;0.40;;;8.00;99.90;;;;;;5075506;28;20680;-42
2023/03/25 02:35:40;;;;;;;0.50;0.50;;;8.10;99.90;;;;;;5058806;28;20237;-43
2023/03/25 02:38:08;;;;;;;0.53;0.53;;;8.00;99.90;;;;;;5058129;28;20206;-43
2023/03/25 02:40:45;;;;;;;0.93;0.50;;;8.10;99.90;;;;;;5051093;28;20199;-44
2023/03/25 02:43:40;;;;;;;2.07;0.67;;;8.10;99.90;;;;;;5092023;28;20252;-42
2023/03/25 02:46:12;;;;;;;1.30;0.70;;;8.00;99.90;;;;;;5090354;28;20218;-43
2023/03/25 02:48:56;;;;;;;1.80;0.70;;;8.10;99.90;;;;;;5075291;28;20188;-44
2023/03/25 02:51:39;;;;;;;3.13;0.60;;;8.00;99.90;;;;;;5058025;28;20318;-43
2023/03/25 02:54:10;;;;;;;1.07;0.60;;;8.00;99.90;;;;;;5075009;28;20184;-44
2023/03/25 02:56:39;;;;;;;0.60;0.60;;;7.90;99.90;;;;;;5091870;28;20176;-43
2023/03/25 02:59:07;;;;;;;1.53;0.40;;;7.80;99.90;;;;;;5091736;28;20179;-42
2023/03/25 03:01:34;;;;;;;1.77;0.70;;;7.70;99.90;;;;;;5091533;28;20233;-43
2023/03/25 03:04:00;;;;;;;1.07;0.37;;;7.60;99.90;;;;;;5074586;28;20192;-43
2023/03/25 03:06:27;;;;;;;0.77;0.53;;;7.40;99.90;;;;;;5091646;28;20180;-43
2023/03/25 03:09:06;;;;;;;0.53;0.40;;;7.30;99.90;;;;;;5074524;28;20179;-42
2023/03/25 03:11:48;;;;;;;0.40;0.40;;;7.30;99.90;;;;;;5092601;28;20256;-43
2023/03/25 03:14:33;;;;;;;1.80;0.50;;;7.30;99.90;;;;;;5092589;28;20258;-41
2023/03/25 03:17:07;;;;;;;1.90;0.50;;;7.30;99.90;;;;;;5074591;28;20180;-43
2023/03/25 03:19:49;;;;;;;2.53;1.23;;;7.30;99.90;;;;;;5074587;28;20216;-43
2023/03/25 03:22:38;;;;;;;0.63;0.60;;;7.30;99.90;;;;;;5074200;28;20211;-43
2023/03/25 03:25:35;;;;;;;5.10;0.50;;;7.40;99.90;;;;;;5057456;28;20176;-43
2023/03/25 03:28:08;;;;;;;1.37;0.70;;;7.40;99.90;;;;;;5069553;28;20211;-43
2023/03/25 03:30:43;;;;;;;0.40;0.40;;;7.40;99.90;;;;;;5074121;28;20183;-43
2023/03/25 03:33:20;;;;;;;1.73;0.43;;;7.50;99.90;;;;;;5074228;28;20191;-43
2023/03/25 03:36:16;;;;;;;1.13;0.50;;;7.50;99.90;;;;;;5092059;28;20266;-43
2023/03/25 03:38:57;;;;;;;0.63;0.50;;;7.40;99.90;;;;;;5073293;28;20191;-42
2023/03/25 03:41:25;;;;;;;0.40;0.40;;;7.40;99.90;;;;;;5090426;28;20215;-43
2023/03/25 03:43:58;;;;;;;0.70;0.50;;;7.40;99.90;;;;;;5073605;28;20309;-43
2023/03/25 03:46:58;;;;;;;2.33;0.60;;;7.40;99.90;;;;;;5074027;28;20191;-43
2023/03/25 03:49:37;;;;;;;1.43;0.50;;;7.50;99.90;;;;;;5073326;28;20202;-43
2023/03/25 03:52:08;;;;;;;1.77;1.30;;;7.40;99.90;;;;;;5073938;28;20211;-43
2023/03/25 03:54:41;;;;;;;0.90;0.60;;;7.50;99.90;;;;;;5073860;28;20183;-40
2023/03/25 03:57:15;;;;;;;0.97;0.60;;;7.50;99.90;;;;;;5073798;28;20553;-43
2023/03/25 03:59:56;;;;;;;0.40;0.40;;;7.50;99.90;;;;;;5091829;28;20175;-43
2023/03/25 04:02:37;;;;;;;1.27;0.70;;;7.50;99.90;;;;;;5091906;28;20244;-43
2023/03/25 04:05:05;;;;;;;1.53;0.80;;;7.50;99.90;;;;;;5073515;28;20197;-43
2023/03/25 04:07:44;;;;;;;1.33;0.67;;;7.50;99.90;;;;;;5073846;28;20232;-42
2023/03/25 04:10:20;;;;;;;2.13;0.77;;;7.50;99.90;;;;;;5081397;28;20190;-43
2023/03/25 04:12:53;;;;;;;1.37;0.60;;;7.50;99.90;;;;;;5073567;28;20199;-43
2023/03/25 04:15:19;;;;;;;1.77;0.60;;;7.50;99.90;;;;;;5073471;28;20252;-41
2023/03/25 04:17:46;;;;;;;2.57;0.80;;;7.50;99.90;;;;;;5073301;28;20182;-43
2023/03/25 04:20:15;;;;;;;3.90;0.80;;;7.50;99.90;;;;;;5073334;28;20210;-43
2023/03/25 04:22:44;;;;;;;2.20;0.97;;;7.50;99.90;;;;;;5073658;28;20203;-40
2023/03/25 04:25:12;;;;;;;3.10;0.90;;;7.50;99.90;;;;;;5072941;28;20658;-43
2023/03/25 04:27:38;;;;;;;1.67;0.70;;;7.50;99.90;;;;;;5072954;28;20240;-43
2023/03/25 04:30:05;;;;;;;1.80;0.80;;;7.50;99.90;;;;;;5072988;28;20185;-41
2023/03/25 04:32:31;;;;;;;1.93;0.90;;;7.50;99.90;;;;;;5091438;28;20198;-43
2023/03/25 04:34:57;;;;;;;3.27;0.97;;;7.50;99.90;;;;;;5089091;28;20184;-43
2023/03/25 04:37:27;;;;;;;4.67;1.10;;;7.40;99.90;;;;;;5091182;28;20172;-43
2023/03/25 04:39:54;;;;;;;3.37;1.20;;;7.40;99.90;;;;;;5072922;28;20202;-43
2023/03/25 04:42:24;;;;;;;3.73;1.10;;;7.40;99.90;;;;;;5073028;28;20255;-43
2023/03/25 04:44:53;;;;;;;3.17;0.80;;;7.40;99.90;;;;;;5091135;28;20168;-42
2023/03/25 04:47:23;;;;;;;3.90;1.17;;;7.50;99.90;;;;;;5073046;28;20210;-38
2023/03/25 04:49:49;;;;;;;3.70;1.10;;;7.50;99.90;;;;;;5091040;28;20187;-42
2023/03/25 04:52:15;;;;;;;4.77;1.20;;;7.50;99.90;;;;;;5072954;28;20199;-43
2023/03/25 04:54:41;;;;;;;2.00;0.97;;;7.50;99.90;;;;;;5090896;28;20219;-43
2023/03/25 04:57:09;;;;;;;3.53;1.37;;;7.50;99.90;;;;;;5072858;28;20184;-43
2023/03/25 04:59:35;;;;;;;2.30;0.93;;;7.50;99.90;;;;;;5090802;28;20173;-41
2023/03/25 05:02:04;;;;;;;2.53;0.90;;;7.50;99.90;;;;;;5089797;28;20284;-42
2023/03/25 05:04:31;;;;;;;3.83;1.40;;;7.50;99.90;;;;;;5090858;28;20202;-43
2023/03/25 05:06:57;;;;;;;4.17;0.93;;;7.40;99.90;;;;;;5073003;28;20224;-43
2023/03/25 05:09:24;;;;;;;1.63;0.93;;;7.40;99.90;;;;;;5090942;28;20186;-43
2023/03/25 05:11:51;;;;;;;4.23;1.00;;;7.40;99.90;;;;;;5090766;28;20294;-43
2023/03/25 05:14:19;;;;;;;3.80;1.30;;;7.40;99.90;;;;;;5090560;28;20183;-43
2023/03/25 05:16:46;;;;;;;2.63;0.77;;;7.40;99.90;;;;;;5072610;28;20184;-43
2023/03/25 05:19:14;;;;;;;5.03;1.23;;;7.40;99.90;;;;;;5072756;28;20266;-43
2023/03/25 05:21:41;;;;;;;2.37;0.93;;;7.40;99.90;;;;;;5055734;28;20219;-43
2023/03/25 05:24:10;;;;;;;4.80;1.37;;;7.50;99.90;;;;;;5089165;28;20270;-41
2023/03/25 05:26:38;;;;;;;3.93;1.07;;;7.50;99.90;;;;;;5071419;28;20178;-43
2023/03/25 05:29:07;;;;;;;2.50;1.00;;;7.50;99.90;;;;;;5088818;28;20199;-42
2023/03/25 05:31:33;;;;;;;4.50;0.90;;;7.50;99.90;;;;;;5089612;28;20223;-43
2023/03/25 05:34:05;;;;;;;3.77;1.10;;;7.50;99.90;;;;;;5090491;28;20183;-43
2023/03/25 05:36:31;;;;;;;2.83;0.90;;;7.50;99.90;;;;;;5091059;28;20187;-41
2023/03/25 05:38:58;;;;;;;2.13;1.13;;;7.50;99.90;;;;;;5072579;28;20184;-43
2023/03/25 05:41:37;;;;;;;4.50;0.97;;;7.50;99.90;;;;;;5072116;28;20214;-43
2023/03/25 05:44:08;;;;;;;2.97;1.10;;;7.50;99.90;;;;;;5072452;28;20187;-43
2023/03/25 05:46:34;;;;;;;2.07;0.93;;;7.50;99.90;;;;;;5089447;28;20187;-43
2023/03/25 05:49:00;;;;;;;2.60;1.00;;;7.60;99.90;;;;;;5072668;28;20232;-43
2023/03/25 05:51:28;;;;;;;2.07;1.10;;;7.60;99.90;;;;;;5090226;28;20207;-43
2023/03/25 05:53:54;;;;;;;4.20;1.07;;;7.60;99.90;;;;;;5071663;28;20181;-42
2023/03/25 05:56:21;;;;;;;5.37;1.17;;;7.60;99.90;;;;;;5071488;28;20270;-43
2023/03/25 05:58:50;;;;;;;1.77;0.80;;;7.60;99.90;;;;;;5072687;28;20183;-44
2023/03/25 06:01:17;;;;;;;5.47;1.40;;;7.60;99.90;;;;;;5093529;28;20223;-42
2023/03/25 06:03:44;;;;;;;2.57;1.00;;;7.60;99.90;;;;;;5081070;22;20231;-90
2023/03/25 06:06:17;;;;;;;3.53;1.40;;;7.60;99.90;;;;;;5040632;28;20276;-90
2023/03/25 06:08:50;;;;;;;2.33;0.90;;;7.70;99.90;;;;;;5037123;28;20226;-90
2023/03/25 06:11:17;;;;;;;2.97;1.27;;;7.70;99.90;;;;;;5066717;28;20205;-89
2023/03/25 06:13:50;;;;;;;2.90;1.30;;;7.70;99.90;;;;;;5053322;28;20184;-89
2023/03/25 06:16:19;;;;;;;1.37;0.83;;;7.80;99.90;;;;;;5069198;28;20192;-90
2023/03/25 06:18:50;;;;;;;5.23;1.60;;;7.70;99.90;;;;;;5035349;28;20220;-90
2023/03/25 06:21:19;;;;;;;5.10;2.10;;;7.80;99.90;;;;;;5068799;28;20332;-89
2023/03/25 06:23:49;;;;;;;5.50;1.43;;;7.80;99.90;;;;;;5068709;28;20272;-89
2023/03/25 06:26:15;;;;;;;4.13;1.23;;;7.80;99.90;;;;;;5068715;28;20185;-88
2023/03/25 06:28:42;;;;;;;4.50;1.67;;;7.80;99.90;;;;;;5067891;28;20178;-90
2023/03/25 06:31:21;;;;;;;3.57;1.30;;;7.90;99.90;;;;;;5051505;28;20201;-90
2023/03/25 06:33:49;;;;;;;4.37;1.50;;;7.90;99.90;;;;;;5069712;28;20188;-88
2023/03/25 06:36:19;;;;;;;3.80;1.30;;;8.00;99.90;;;;;;5052521;28;20177;-90
2023/03/25 06:38:47;;;;;;;3.87;1.40;;;8.00;99.90;;;;;;5068557;28;20208;-89
2023/03/25 06:41:19;;;;;;;3.73;1.33;;;8.10;99.90;;;;;;5068098;28;20261;-89
2023/03/25 06:43:48;;;;;;;3.50;2.00;;;8.10;99.90;;;;;;5052788;28;20181;-89
2023/03/25 06:46:33;;;;;;;1.43;1.10;;;8.20;99.90;;;;;;5078034;28;20193;-90
2023/03/25 06:49:21;;;;;;;3.43;1.50;;;8.20;99.90;;;;;;5072551;28;20308;-91
2023/03/25 06:51:48;;;;;;;2.40;1.27;;;8.40;99.90;;;;;;5063896;28;20178;-90
2023/03/25 06:54:14;;;;;;;2.17;1.10;;;8.40;99.90;;;;;;5069010;28;20205;-90
2023/03/25 06:56:40;;;;;;;3.13;0.90;;;8.50;99.90;;;;;;5061169;28;20174;-91
2023/03/25 06:59:06;;;;;;;3.27;1.00;;;8.40;99.90;;;;;;5072486;28;20173;-86
2023/03/25 07:01:32;;;;;;;2.47;1.10;;;8.30;99.90;;;;;;5077384;28;20265;-89
2023/03/25 07:03:58;;;;;;;2.27;0.90;;;8.20;99.90;;;;;;5074176;28;20181;-88
2023/03/25 07:06:23;;;;;;;3.73;1.00;;;8.20;99.90;;;;;;5071892;28;20233;-88
2023/03/25 07:08:49;;;;;;;1.30;0.90;;;8.10;99.90;;;;;;5089125;22;20231;-32
2023/03/25 07:11:22;;;;;;;2.70;1.10;;;8.10;99.90;;;;;;5082971;28;20183;-31
2023/03/25 07:13:47;;;;;;;2.37;1.30;;;8.00;99.90;;;;;;5065253;28;20251;-32
2023/03/25 07:16:13;;;;;;;3.87;1.67;;;8.10;99.90;;;;;;5059321;28;20338;-32
2023/03/25 07:18:39;;;;;;;3.70;1.50;;;8.10;99.90;;;;;;5092706;28;20196;-32
2023/03/25 07:21:05;;;;;;;1.53;0.90;;;8.20;99.90;;;;;;5131531;22;20252;-39
2023/03/25 07:23:31;;;;;;;1.87;0.90;;;8.20;99.90;;;;;;5071379;28;20192;-40
2023/03/25 07:25:57;;;;;;;2.13;0.70;;;8.20;99.90;;;;;;5070585;28;20206;-39
2023/03/25 07:28:22;;;;;;;3.60;1.37;;;8.20;99.90;;;;;;5071743;28;20177;-39
2023/03/25 07:30:48;;;;;;;4.53;1.00;;;8.40;99.90;;;;;;5082201;28;20206;-39
2023/03/25 07:33:15;;;;;;;3.90;1.00;;;8.50;99.90;;;;;;5076381;28;20303;-42
2023/03/25 07:35:40;;;;;;;3.80;1.10;;;8.40;99.90;;;;;;5071471;28;20186;-39
2023/03/25 07:38:08;;;;;;;3.97;0.97;;;8.50;99.90;;;;;;5053541;28;20184;-38
2023/03/25 07:40:34;;;;;;;1.53;0.67;;;8.40;99.90;;;;;;5069579;28;20240;-41
2023/03/25 07:43:00;;;;;;;2.27;1.00;;;8.40;99.90;;;;;;5053603;28;20254;-40
2023/03/25 07:45:55;;;;;;;2.23;0.63;;;8.50;99.90;;;;;;5053298;28;20178;-38
2023/03/25 07:48:21;;;;;;;1.70;0.87;;;8.60;99.90;;;;;;5052665;28;20203;-40
2023/03/25 07:50:51;;;;;;;0.83;0.70;;;8.80;99.90;;;;;;5057924;28;20177;-40
2023/03/25 07:53:16;;;;;;;1.60;0.90;;;8.90;99.90;;;;;;5070961;28;20212;-41
2023/03/25 07:55:44;;;;;;;1.60;0.73;;;8.90;99.90;;;;;;5053529;28;20234;-39
2023/03/25 07:58:10;;;;;;;1.00;0.60;;;8.90;99.90;;;;;;5071246;28;20169;-43
2023/03/25 08:00:36;;;;;;;2.33;0.90;;;8.90;99.90;;;;;;5069092;28;20251;-43
2023/03/25 08:03:03;;;;;;;2.00;1.27;;;8.80;99.90;;;;;;5053178;28;20197;-38
2023/03/25 08:05:30;;;;;;;1.00;0.80;;;8.80;99.90;;;;;;5070521;28;20703;-39
2023/03/25 08:07:59;;;;;;;1.27;0.77;;;8.80;99.90;;;;;;5070458;28;20199;-41
2023/03/25 08:10:24;;;;;;;1.03;0.83;;;8.80;99.90;;;;;;5053171;28;20253;-39
2023/03/25 08:12:52;;;;;;;1.20;1.00;;;8.80;99.90;;;;;;5069914;28;20303;-40
2023/03/25 08:15:19;;;;;;;1.10;0.80;;;8.80;99.90;;;;;;5052399;28;20181;-39
2023/03/25 08:17:46;;;;;;;1.10;1.00;;;8.80;99.90;;;;;;5061227;28;20701;-39
2023/03/25 08:20:12;;;;;;;3.27;1.10;;;8.90;99.90;;;;;;5037910;28;20201;-40
2023/03/25 08:22:38;;;;;;;2.17;0.80;;;8.90;99.90;;;;;;5052473;28;20277;-39
2023/03/25 08:25:04;;;;;;;1.60;0.90;;;8.90;99.90;;;;;;5069500;28;20181;-40
2023/03/25 08:27:30;;;;;;;1.67;0.60;;;9.00;99.90;;;;;;5053396;28;20208;-39
2023/03/25 08:29:58;;;;;;;0.60;0.60;;;9.00;99.90;;;;;;5070777;28;20196;-37
2023/03/25 08:32:25;;;;;;;2.73;0.90;;;9.10;99.90;;;;;;5053287;28;20197;-38
2023/03/25 08:34:50;;;;;;;1.83;0.60;;;9.20;99.90;;;;;;5069618;28;20196;-38
2023/03/25 08:37:16;;;;;;;2.00;0.70;;;9.30;99.90;;;;;;5052926;28;20181;-38
2023/03/25 08:39:43;;;;;;;1.57;0.73;;;9.30;99.90;;;;;;5069275;28;20319;-38
2023/03/25 08:42:13;;;;;;;2.33;0.77;;;9.50;99.90;;;;;;5069418;28;20274;-36
2023/03/25 08:44:39;;;;;;;0.70;0.70;;;9.60;99.90;;;;;;5068820;28;20173;-39
2023/03/25 08:47:05;;;;;;;1.43;1.00;;;9.60;99.90;;;;;;5052867;28;20185;-37
2023/03/25 08:49:31;;;;;;;0.90;0.80;;;9.60;99.90;;;;;;5071318;28;20177;-38
2023/03/25 08:51:59;;;;;;;2.30;0.70;;;9.70;99.90;;;;;;5052996;28;20204;-37
2023/03/25 08:54:26;;;;;;;1.00;0.80;;;9.90;99.90;;;;;;5052322;28;20185;-37
2023/03/25 08:56:52;;;;;;;1.10;0.90;;;9.90;99.90;;;;;;5052829;28;20220;-38
2023/03/25 08:59:18;;;;;;;1.70;0.80;;;10.00;99.90;;;;;;5051394;28;20215;-37
2023/03/25 09:01:43;;;;;;;2.30;0.97;;;10.10;99.90;;;;;;5052823;28;20217;-37
2023/03/25 09:04:10;;;;;;;3.23;1.33;;;10.10;99.90;;;;;;5052189;28;20173;-38
2023/03/25 09:06:38;;;;;;;2.23;1.10;;;10.30;99.90;;;;;;5070665;28;20174;-37
2023/03/25 09:09:05;;;;;;;1.47;0.70;;;10.30;99.90;;;;;;5051623;28;20197;-38
2023/03/25 09:11:32;;;;;;;3.37;1.30;;;10.30;99.90;;;;;;5070279;28;20201;-37
2023/03/25 09:13:58;;;;;;;2.47;1.10;;;10.30;99.90;;;;;;5035590;28;20184;-37
2023/03/25 09:16:23;;;;;;;1.90;0.87;;;10.40;99.90;;;;;;5070184;28;20177;-38
2023/03/25 09:18:50;;;;;;;2.20;1.20;;;10.40;99.90;;;;;;5052011;28;20192;-37
2023/03/25 09:21:16;;;;;;;2.10;1.23;;;10.40;99.90;;;;;;5052506;28;20213;-37
2023/03/25 09:23:42;;;;;;;1.37;1.03;;;10.30;99.90;;;;;;5043501;28;20176;-38
2023/03/25 09:26:07;;;;;;;2.27;1.00;;;10.30;99.90;;;;;;5070818;28;20183;-38
2023/03/25 09:28:35;;;;;;;1.57;0.90;;;10.40;99.90;;;;;;5048303;28;20202;-37
2023/03/25 09:31:01;;;;;;;2.00;0.87;;;10.60;99.90;;;;;;5053757;28;20196;-37
2023/03/25 09:33:27;;;;;;;1.93;1.07;;;10.90;99.90;;;;;;5063914;28;20194;-38
2023/03/25 09:35:53;;;;;;;1.23;0.70;;;11.00;99.90;;;;;;5055349;28;20296;-38
2023/03/25 09:38:20;;;;;;;3.07;0.70;;;10.90;99.90;;;;;;5077212;28;20648;-37
2023/03/25 09:40:45;;;;;;;1.07;0.60;;;11.00;99.90;;;;;;5059370;28;20260;-37
2023/03/25 09:43:14;;;;;;;0.93;0.70;;;11.00;99.90;;;;;;5062032;28;20222;-38
2023/03/25 09:45:46;;;;;;;1.77;0.90;;;11.10;99.90;;;;;;5077227;28;20169;-37
2023/03/25 09:48:21;;;;;;;1.50;0.80;;;11.30;99.90;;;;;;5065573;28;20173;-37
2023/03/25 09:50:47;;;;;;;1.60;0.70;;;11.50;99.90;;;;;;5068963;28;20173;-38
2023/03/25 09:53:39;;;;;;;3.43;0.80;;;11.40;99.90;;;;;;5052889;28;20206;-38
2023/03/25 09:56:10;;;;;;;1.30;0.70;;;11.50;99.90;;;;;;5050244;28;20185;-39
2023/03/25 09:58:43;;;;;;;1.20;0.70;;;11.40;99.90;;;;;;5070724;28;20170;-37
2023/03/25 10:01:48;;;;;;;1.73;0.80;;;11.20;99.90;;;;;;5070360;28;20203;-38
2023/03/25 10:04:19;;;;;;;1.87;1.03;;;11.10;99.90;;;;;;5060788;28;20184;-37
2023/03/25 10:07:04;;;;;;;0.70;0.70;;;11.20;99.90;;;;;;5069344;28;20211;-39
2023/03/25 10:09:37;;;;;;;1.97;1.30;;;11.10;99.90;;;;;;5054548;28;20185;-39
2023/03/25 10:12:28;;;;;;;1.20;0.90;;;11.00;99.90;;;;;;5074067;28;20198;-38
2023/03/25 10:15:02;;;;;;;1.50;0.90;;;10.80;99.90;;;;;;5055152;28;20182;-40
2023/03/25 10:17:55;;;;;;;1.70;0.90;;;10.50;99.90;;;;;;5072387;28;20173;-39
2023/03/25 10:20:26;;;;;;;1.30;0.80;;;10.60;99.90;;;;;;5055604;28;20259;-38
2023/03/25 10:23:08;;;;;;;2.70;0.80;;;10.70;99.90;;;;;;5076693;28;20206;-38
2023/03/25 10:25:40;;;;;;;0.73;0.60;;;10.50;99.90;;;;;;5080911;28;20169;-40
2023/03/25 10:28:16;;;;;;;2.27;0.90;;;10.00;99.90;;;;;;5054985;28;20177;-41
2023/03/25 10:30:48;;;;;;;0.87;0.60;;;9.80;99.90;;;;;;5077128;28;20177;-40
2023/03/25 10:33:27;;;;;;;1.40;0.80;;;9.80;99.90;;;;;;5062592;28;20208;-41
2023/03/25 10:35:55;;;;;;;2.13;1.07;;;10.10;99.90;;;;;;5046033;28;20268;-41
2023/03/25 10:38:23;;;;;;;3.13;0.87;;;10.30;99.90;;;;;;5053064;28;20216;-41
2023/03/25 10:40:56;;;;;;;4.37;1.50;;;10.40;99.90;;;;;;5046939;28;20214;-40
2023/03/25 10:43:30;;;;;;;1.87;0.93;;;10.40;99.90;;;;;;5043254;28;20176;-44
2023/03/25 10:46:11;;;;;;;3.57;2.10;;;10.40;99.90;;;;;;5060588;28;20249;-40
2023/03/25 10:48:38;;;;;;;1.80;1.00;;;10.50;99.90;;;;;;5056274;28;20260;-40
2023/03/25 10:51:12;;;;;;;4.00;0.80;;;10.60;99.90;;;;;;5049405;28;20273;-40
2023/03/25 10:53:47;;;;;;;3.00;0.83;;;10.80;99.90;;;;;;5068624;28;20180;-42
2023/03/25 10:56:16;;;;;;;1.77;0.90;;;11.00;99.90;;;;;;5077010;28;20172;-42
2023/03/25 10:58:47;;;;;;;2.03;0.80;;;11.10;99.90;;;;;;5073005;28;20193;-45
2023/03/25 11:01:16;;;;;;;1.63;0.73;;;11.20;99.90;;;;;;5054320;28;20201;-43
2023/03/25 11:03:43;;;;;;;0.97;0.70;;;11.20;99.90;;;;;;5072413;28;20227;-41
2023/03/25 11:06:22;;;;;;;3.17;0.80;;;11.00;99.90;;;;;;5072584;28;20521;-44
2023/03/25 11:09:06;;;;;;;0.87;0.60;;;10.80;99.90;;;;;;5072747;28;20181;-41
2023/03/25 11:11:33;;;;;;;2.50;0.60;;;10.80;99.90;;;;;;5070852;28;20185;-42
2023/03/25 11:13:59;;;;;;;2.03;0.90;;;10.70;99.90;;;;;;5053828;28;20200;-41
2023/03/25 11:16:27;;;;;;;2.27;0.97;;;10.50;99.90;;;;;;5053672;28;20181;-41
2023/03/25 11:18:53;;;;;;;1.43;0.60;;;10.40;99.90;;;;;;5053940;28;20199;-42
2023/03/25 11:21:20;;;;;;;2.37;0.80;;;10.30;99.90;;;;;;5054139;28;20267;-42
2023/03/25 11:23:48;;;;;;;2.37;1.03;;;10.30;99.90;;;;;;5065755;28;20260;-42
2023/03/25 11:26:20;;;;;;;0.70;0.70;;;10.20;99.90;;;;;;5055770;28;20178;-46
2023/03/25 11:28:51;;;;;;;1.87;1.10;;;10.30;99.90;;;;;;5064488;28;20205;-41
2023/03/25 11:31:22;;;;;;;2.37;0.97;;;10.30;99.90;;;;;;5070789;28;20231;-40
2023/03/25 11:34:21;;;;;;;3.47;0.60;;;10.30;99.90;;;;;;5070513;28;20238;-41
2023/03/25 11:36:51;;;;;;;1.40;1.00;;;10.50;99.90;;;;;;5067473;28;20192;-43
2023/03/25 11:39:38;;;;;;;2.30;0.80;;;10.50;99.90;;;;;;5035351;28;20239;-43
2023/03/25 11:42:32;;;;;;;0.97;0.70;;;10.60;99.90;;;;;;5066260;28;20217;-41
2023/03/25 11:45:01;;;;;;;1.43;0.80;;;10.60;99.90;;;;;;5056179;28;20201;-41
2023/03/25 11:47:39;;;;;;;1.73;0.80;;;10.70;99.90;;;;;;5064990;28;20169;-42
2023/03/25 11:50:06;;;;;;;3.83;0.83;;;10.90;99.90;;;;;;5047693;28;20717;-44
2023/03/25 11:52:46;;;;;;;2.20;0.80;;;10.90;99.90;;;;;;5053297;28;20193;-40
2023/03/25 11:55:31;;;;;;;1.17;0.63;;;11.10;99.90;;;;;;5053257;28;20235;-42
2023/03/25 11:57:59;;;;;;;2.20;0.80;;;11.30;99.90;;;;;;5052592;28;20188;-38
2023/03/25 12:00:27;;;;;;;0.73;0.50;;;11.60;99.90;;;;;;5053423;28;20217;-41
2023/03/25 12:03:02;;;;;;;1.90;0.50;;;11.70;99.90;;;;;;5053134;28;20193;-40
2023/03/25 12:05:28;;;;;;;2.03;0.60;;;11.70;99.90;;;;;;5069187;28;20181;-37
2023/03/25 12:08:14;;;;;;;1.50;0.60;;;11.80;99.90;;;;;;5069968;28;20235;-43
2023/03/25 12:10:57;;;;;;;1.13;0.50;;;11.90;99.90;;;;;;5065958;28;20238;-38
2023/03/25 12:13:54;;;;;;;1.53;0.57;;;12.00;99.90;;;;;;5051058;28;20299;-38
2023/03/25 12:16:27;;;;;;;0.97;0.70;;;12.00;99.90;;;;;;5068711;28;20175;-41
2023/03/25 12:19:20;;;;;;;0.73;0.53;;;12.20;99.90;;;;;;5058939;28;20194;-37
2023/03/25 12:22:06;;;;;;;1.53;0.70;;;12.20;99.90;;;;;;5053193;28;20301;-39
2023/03/25 12:25:00;;;;;;;1.93;0.80;;;11.80;99.90;;;;;;5069434;28;20177;-41
2023/03/25 12:28:03;;;;;;;0.90;0.50;;;11.30;99.90;;;;;;5067367;28;20665;-40
2023/03/25 12:30:54;;;;;;;1.97;0.63;;;11.00;99.90;;;;;;5049455;28;20216;-41
2023/03/25 12:33:21;;;;;;;1.33;0.70;;;10.80;99.90;;;;;;5062225;28;20178;-41
2023/03/25 12:36:27;;;;;;;2.47;0.70;;;10.60;99.90;;;;;;5069765;28;20181;-41
2023/03/25 12:39:06;;;;;;;1.70;0.80;;;10.70;99.90;;;;;;5044181;28;20205;-40
2023/03/25 12:41:42;;;;;;;0.97;0.53;;;10.90;99.90;;;;;;5069560;28;20223;-41
2023/03/25 12:44:36;;;;;;;0.73;0.63;;;11.10;99.90;;;;;;5052698;28;20177;-40
2023/03/25 12:47:22;;;;;;;1.77;0.77;;;11.20;99.90;;;;;;5024532;28;20189;-41
2023/03/25 12:49:59;;;;;;;1.57;0.83;;;11.40;99.90;;;;;;5036217;28;20174;-39
2023/03/25 12:52:42;;;;;;;1.27;0.80;;;11.60;99.90;;;;;;5043005;28;20224;-41
2023/03/25 12:55:08;;;;;;;2.53;0.80;;;11.70;99.90;;;;;;5069876;28;20236;-41
2023/03/25 12:58:25;;;;;;;1.47;0.93;;;11.90;99.90;;;;;;5070832;28;20176;-44
2023/03/25 13:01:08;;;;;;;1.97;1.10;;;12.10;99.90;;;;;;4978823;28;20261;-41
2023/03/25 13:04:00;;;;;;;1.30;0.80;;;12.30;99.90;;;;;;5047267;28;20185;-38
2023/03/25 13:06:38;;;;;;;4.17;1.00;;;12.50;99.90;;;;;;5058921;28;20176;-41
2023/03/25 13:09:08;;;;;;;2.73;1.07;;;12.50;99.90;;;;;;5061694;28;20252;-42
2023/03/25 13:11:44;;;;;;;0.87;0.87;;;12.30;99.90;;;;;;5072828;28;20194;-41
2023/03/25 13:14:37;;;;;;;2.37;0.80;;;12.10;99.90;;;;;;5060596;28;20232;-41
2023/03/25 13:17:39;;;;;;;0.90;0.90;;;11.90;99.90;;;;;;5053039;28;20196;-38
2023/03/25 13:20:09;;;;;;;0.93;0.80;;;11.70;99.90;;;;;;5070880;28;20358;-41